sensor_id;sensor_type;location;lat;lon;timestamp;temperature;humidity
13328;DHT22;6733;51.044;3.746;2022-08-19T00:00:38;19.20;99.90
13328;DHT22;6733;51.044;3.746;2022-08-19T00:03:05;19.10;99.90
13328;DHT22;6733;51.044;3.746;2022-08-19T00:05:33;19.10;99.90
13328;DHT22;6733;51.044;3.746;2022-08-19T00:07:59;19.00;99.90
13328;DHT22;6733;51.044;3.746;2022-08-19T00:10:25;19.00;99.90
13328;DHT22;6733;51.044;3.746;2022-08-19T00:12:51;19.00;99.90
13328;DHT22;6733;51.044;3.746;2022-08-19T00:15:20;18.90;99.90
13328;DHT22;6733;51.044;3.746;2022-08-19T00:17:47;18.90;99.90
13328;DHT22;6733;51.044;3.746;2022-08-19T00:20:16;18.90;99.90
13328;DHT22;6733;51.044;3.746;2022-08-19T00:22:44;18.80;99.90
13328;DHT22;6733;51.044;3.746;2022-08-19T00:25:11;18.80;99.90
13328;DHT22;6733;51.044;3.746;2022-08-19T00:27:37;18.80;99.90
13328;DHT22;6733;51.044;3.746;2022-08-19T00:30:06;18.80;99.90
13328;DHT22;6733;51.044;3.746;2022-08-19T00:32:33;18.80;99.90
13328;DHT22;6733;51.044;3.746;2022-08-19T00:35:00;18.80;99.90
13328;DHT22;6733;51.044;3.746;2022-08-19T00:37:27;18.80;99.90
13328;DHT22;6733;51.044;3.746;2022-08-19T00:39:53;18.80;99.90
13328;DHT22;6733;51.044;3.746;2022-08-19T00:42:20;18.80;99.90
13328;DHT22;6733;51.044;3.746;2022-08-19T00:44:46;18.70;99.90
13328;DHT22;6733;51.044;3.746;2022-08-19T00:47:13;18.70;99.90
13328;DHT22;6733;51.044;3.746;2022-08-19T00:49:44;18.60;99.90
13328;DHT22;6733;51.044;3.746;2022-08-19T00:52:17;18.60;99.90
13328;DHT22;6733;51.044;3.746;2022-08-19T00:54:44;18.60;99.90
13328;DHT22;6733;51.044;3.746;2022-08-19T00:57:17;18.50;99.90
13328;DHT22;6733;51.044;3.746;2022-08-19T00:59:47;18.50;99.90
13328;DHT22;6733;51.044;3.746;2022-08-19T01:02:14;18.40;99.90
13328;DHT22;6733;51.044;3.746;2022-08-19T01:04:41;18.50;99.90
13328;DHT22;6733;51.044;3.746;2022-08-19T01:07:07;18.40;99.90
13328;DHT22;6733;51.044;3.746;2022-08-19T01:09:33;18.40;99.90
13328;DHT22;6733;51.044;3.746;2022-08-19T01:12:00;18.40;99.90
13328;DHT22;6733;51.044;3.746;2022-08-19T01:14:26;18.30;99.90
13328;DHT22;6733;51.044;3.746;2022-08-19T01:16:54;18.30;99.90
13328;DHT22;6733;51.044;3.746;2022-08-19T01:19:29;18.40;99.90
13328;DHT22;6733;51.044;3.746;2022-08-19T01:22:04;18.30;99.90
13328;DHT22;6733;51.044;3.746;2022-08-19T01:24:31;18.30;99.90
13328;DHT22;6733;51.044;3.746;2022-08-19T01:26:58;18.20;99.90
13328;DHT22;6733;51.044;3.746;2022-08-19T01:29:24;18.20;99.90
13328;DHT22;6733;51.044;3.746;2022-08-19T01:31:51;18.10;99.90
13328;DHT22;6733;51.044;3.746;2022-08-19T01:34:19;18.10;99.90
13328;DHT22;6733;51.044;3.746;2022-08-19T01:36:47;18.10;99.90
13328;DHT22;6733;51.044;3.746;2022-08-19T01:39:17;18.10;99.90
13328;DHT22;6733;51.044;3.746;2022-08-19T01:41:45;18.00;99.90
13328;DHT22;6733;51.044;3.746;2022-08-19T01:44:11;18.00;99.90
13328;DHT22;6733;51.044;3.746;2022-08-19T01:46:38;18.00;99.90
13328;DHT22;6733;51.044;3.746;2022-08-19T01:49:05;18.00;99.90
13328;DHT22;6733;51.044;3.746;2022-08-19T01:51:32;17.90;99.90
13328;DHT22;6733;51.044;3.746;2022-08-19T01:53:58;17.90;99.90
13328;DHT22;6733;51.044;3.746;2022-08-19T01:56:24;17.80;99.90
13328;DHT22;6733;51.044;3.746;2022-08-19T01:58:57;17.80;99.90
13328;DHT22;6733;51.044;3.746;2022-08-19T02:01:24;17.80;99.90
13328;DHT22;6733;51.044;3.746;2022-08-19T02:03:50;17.80;99.90
13328;DHT22;6733;51.044;3.746;2022-08-19T02:06:19;17.70;99.90
13328;DHT22;6733;51.044;3.746;2022-08-19T02:08:46;17.70;99.90
13328;DHT22;6733;51.044;3.746;2022-08-19T02:11:25;17.70;99.90
13328;DHT22;6733;51.044;3.746;2022-08-19T02:13:53;17.70;99.90
13328;DHT22;6733;51.044;3.746;2022-08-19T02:16:20;17.70;99.90
13328;DHT22;6733;51.044;3.746;2022-08-19T02:18:47;17.60;99.90
13328;DHT22;6733;51.044;3.746;2022-08-19T02:21:21;17.60;99.90
13328;DHT22;6733;51.044;3.746;2022-08-19T02:23:48;17.60;99.90
13328;DHT22;6733;51.044;3.746;2022-08-19T02:26:15;17.60;99.90
13328;DHT22;6733;51.044;3.746;2022-08-19T02:28:41;17.60;99.90
13328;DHT22;6733;51.044;3.746;2022-08-19T02:31:19;17.50;99.90
13328;DHT22;6733;51.044;3.746;2022-08-19T02:33:53;17.60;99.90
13328;DHT22;6733;51.044;3.746;2022-08-19T02:36:19;17.50;99.90
13328;DHT22;6733;51.044;3.746;2022-08-19T02:38:46;17.50;99.90
13328;DHT22;6733;51.044;3.746;2022-08-19T02:41:15;17.50;99.90
13328;DHT22;6733;51.044;3.746;2022-08-19T02:43:42;17.50;99.90
13328;DHT22;6733;51.044;3.746;2022-08-19T02:46:29;17.50;99.90
13328;DHT22;6733;51.044;3.746;2022-08-19T02:48:59;17.50;99.90
13328;DHT22;6733;51.044;3.746;2022-08-19T02:51:32;17.40;99.90
13328;DHT22;6733;51.044;3.746;2022-08-19T02:53:58;17.40;99.90
13328;DHT22;6733;51.044;3.746;2022-08-19T02:56:26;17.40;99.90
13328;DHT22;6733;51.044;3.746;2022-08-19T02:58:54;17.40;99.90
13328;DHT22;6733;51.044;3.746;2022-08-19T03:01:31;17.50;99.90
13328;DHT22;6733;51.044;3.746;2022-08-19T03:04:00;17.50;99.90
13328;DHT22;6733;51.044;3.746;2022-08-19T03:06:27;17.50;99.90
13328;DHT22;6733;51.044;3.746;2022-08-19T03:08:53;17.50;99.90
13328;DHT22;6733;51.044;3.746;2022-08-19T03:11:25;17.50;99.90
13328;DHT22;6733;51.044;3.746;2022-08-19T03:13:52;17.50;99.90
13328;DHT22;6733;51.044;3.746;2022-08-19T03:16:21;17.40;99.90
13328;DHT22;6733;51.044;3.746;2022-08-19T03:18:48;17.50;99.90
13328;DHT22;6733;51.044;3.746;2022-08-19T03:21:24;17.50;99.90
13328;DHT22;6733;51.044;3.746;2022-08-19T03:23:54;17.50;99.90
13328;DHT22;6733;51.044;3.746;2022-08-19T03:26:20;17.50;99.90
13328;DHT22;6733;51.044;3.746;2022-08-19T03:28:46;17.50;99.90
13328;DHT22;6733;51.044;3.746;2022-08-19T03:31:18;17.50;99.90
13328;DHT22;6733;51.044;3.746;2022-08-19T03:33:45;17.50;99.90
13328;DHT22;6733;51.044;3.746;2022-08-19T03:36:15;17.50;99.90
13328;DHT22;6733;51.044;3.746;2022-08-19T03:38:44;17.50;99.90
13328;DHT22;6733;51.044;3.746;2022-08-19T03:41:13;17.50;99.90
13328;DHT22;6733;51.044;3.746;2022-08-19T03:43:42;17.50;99.90
13328;DHT22;6733;51.044;3.746;2022-08-19T03:46:11;17.50;99.90
13328;DHT22;6733;51.044;3.746;2022-08-19T03:48:40;17.50;99.90
13328;DHT22;6733;51.044;3.746;2022-08-19T03:51:07;17.50;99.90
13328;DHT22;6733;51.044;3.746;2022-08-19T03:53:35;17.50;99.90
13328;DHT22;6733;51.044;3.746;2022-08-19T03:56:02;17.40;99.90
13328;DHT22;6733;51.044;3.746;2022-08-19T03:58:29;17.40;99.90
13328;DHT22;6733;51.044;3.746;2022-08-19T04:00:56;17.40;99.90
13328;DHT22;6733;51.044;3.746;2022-08-19T04:03:23;17.40;99.90
13328;DHT22;6733;51.044;3.746;2022-08-19T04:05:50;17.40;99.90
13328;DHT22;6733;51.044;3.746;2022-08-19T04:08:17;17.40;99.90
13328;DHT22;6733;51.044;3.746;2022-08-19T04:10:47;17.40;99.90
13328;DHT22;6733;51.044;3.746;2022-08-19T04:13:15;17.30;99.90
13328;DHT22;6733;51.044;3.746;2022-08-19T04:15:43;17.30;99.90
13328;DHT22;6733;51.044;3.746;2022-08-19T04:18:11;17.40;99.90
13328;DHT22;6733;51.044;3.746;2022-08-19T04:20:45;17.30;99.90
13328;DHT22;6733;51.044;3.746;2022-08-19T04:23:13;17.30;99.90
13328;DHT22;6733;51.044;3.746;2022-08-19T04:25:42;17.30;99.90
13328;DHT22;6733;51.044;3.746;2022-08-19T04:28:10;17.30;99.90
13328;DHT22;6733;51.044;3.746;2022-08-19T04:30:42;17.30;99.90
13328;DHT22;6733;51.044;3.746;2022-08-19T04:33:11;17.30;99.90
13328;DHT22;6733;51.044;3.746;2022-08-19T04:35:39;17.30;99.90
13328;DHT22;6733;51.044;3.746;2022-08-19T04:38:06;17.30;99.90
13328;DHT22;6733;51.044;3.746;2022-08-19T04:40:34;17.40;99.90
13328;DHT22;6733;51.044;3.746;2022-08-19T04:43:19;17.40;99.90
13328;DHT22;6733;51.044;3.746;2022-08-19T04:45:45;17.30;99.90
13328;DHT22;6733;51.044;3.746;2022-08-19T04:48:12;17.40;99.90
13328;DHT22;6733;51.044;3.746;2022-08-19T04:50:44;17.40;99.90
13328;DHT22;6733;51.044;3.746;2022-08-19T04:53:10;17.30;99.90
13328;DHT22;6733;51.044;3.746;2022-08-19T04:55:39;17.30;99.90
13328;DHT22;6733;51.044;3.746;2022-08-19T04:58:06;17.40;99.90
13328;DHT22;6733;51.044;3.746;2022-08-19T05:00:32;17.40;99.90
13328;DHT22;6733;51.044;3.746;2022-08-19T05:02:58;17.40;99.90
13328;DHT22;6733;51.044;3.746;2022-08-19T05:05:24;17.40;99.90
13328;DHT22;6733;51.044;3.746;2022-08-19T05:07:50;17.50;99.90
13328;DHT22;6733;51.044;3.746;2022-08-19T05:10:17;17.50;99.90
13328;DHT22;6733;51.044;3.746;2022-08-19T05:12:43;17.50;99.90
13328;DHT22;6733;51.044;3.746;2022-08-19T05:15:09;17.60;99.90
13328;DHT22;6733;51.044;3.746;2022-08-19T05:17:37;17.60;99.90
13328;DHT22;6733;51.044;3.746;2022-08-19T05:20:05;17.60;99.90
13328;DHT22;6733;51.044;3.746;2022-08-19T05:22:50;17.70;99.90
13328;DHT22;6733;51.044;3.746;2022-08-19T05:25:19;17.70;99.90
13328;DHT22;6733;51.044;3.746;2022-08-19T05:27:45;17.80;99.90
13328;DHT22;6733;51.044;3.746;2022-08-19T05:30:12;17.80;99.90
13328;DHT22;6733;51.044;3.746;2022-08-19T05:32:39;18.00;99.90
13328;DHT22;6733;51.044;3.746;2022-08-19T05:35:05;18.00;99.90
13328;DHT22;6733;51.044;3.746;2022-08-19T05:37:33;18.00;99.90
13328;DHT22;6733;51.044;3.746;2022-08-19T05:39:59;18.00;99.90
13328;DHT22;6733;51.044;3.746;2022-08-19T05:42:25;18.00;99.90
13328;DHT22;6733;51.044;3.746;2022-08-19T05:44:52;18.10;99.90
13328;DHT22;6733;51.044;3.746;2022-08-19T05:47:19;18.20;99.90
13328;DHT22;6733;51.044;3.746;2022-08-19T05:49:46;18.20;99.90
13328;DHT22;6733;51.044;3.746;2022-08-19T05:52:14;18.20;99.90
13328;DHT22;6733;51.044;3.746;2022-08-19T05:54:43;18.20;99.90
13328;DHT22;6733;51.044;3.746;2022-08-19T05:57:10;18.30;99.90
13328;DHT22;6733;51.044;3.746;2022-08-19T05:59:36;18.40;99.90
13328;DHT22;6733;51.044;3.746;2022-08-19T06:02:04;18.40;99.90
13328;DHT22;6733;51.044;3.746;2022-08-19T06:04:30;18.60;99.90
13328;DHT22;6733;51.044;3.746;2022-08-19T06:06:56;18.60;99.90
13328;DHT22;6733;51.044;3.746;2022-08-19T06:09:24;18.60;99.90
13328;DHT22;6733;51.044;3.746;2022-08-19T06:11:56;18.70;99.90
13328;DHT22;6733;51.044;3.746;2022-08-19T06:14:34;18.80;99.90
13328;DHT22;6733;51.044;3.746;2022-08-19T06:17:01;18.70;99.90
13328;DHT22;6733;51.044;3.746;2022-08-19T06:19:28;18.80;99.90
13328;DHT22;6733;51.044;3.746;2022-08-19T06:21:59;18.90;99.90
13328;DHT22;6733;51.044;3.746;2022-08-19T06:24:27;18.90;99.90
13328;DHT22;6733;51.044;3.746;2022-08-19T06:26:56;19.00;99.90
13328;DHT22;6733;51.044;3.746;2022-08-19T06:29:24;19.10;99.90
13328;DHT22;6733;51.044;3.746;2022-08-19T06:31:53;19.20;99.90
13328;DHT22;6733;51.044;3.746;2022-08-19T06:34:20;19.30;99.90
13328;DHT22;6733;51.044;3.746;2022-08-19T06:36:48;19.40;99.90
13328;DHT22;6733;51.044;3.746;2022-08-19T06:39:23;19.60;99.90
13328;DHT22;6733;51.044;3.746;2022-08-19T06:41:51;19.60;99.90
13328;DHT22;6733;51.044;3.746;2022-08-19T06:44:20;19.70;99.90
13328;DHT22;6733;51.044;3.746;2022-08-19T06:46:47;19.80;99.90
13328;DHT22;6733;51.044;3.746;2022-08-19T06:49:16;19.60;99.90
13328;DHT22;6733;51.044;3.746;2022-08-19T06:51:43;19.80;99.90
13328;DHT22;6733;51.044;3.746;2022-08-19T06:54:10;20.00;99.90
13328;DHT22;6733;51.044;3.746;2022-08-19T06:56:37;20.00;99.90
13328;DHT22;6733;51.044;3.746;2022-08-19T06:59:06;19.90;99.90
13328;DHT22;6733;51.044;3.746;2022-08-19T07:01:37;19.90;99.90
13328;DHT22;6733;51.044;3.746;2022-08-19T07:04:06;19.90;99.90
13328;DHT22;6733;51.044;3.746;2022-08-19T07:06:33;19.90;99.90
13328;DHT22;6733;51.044;3.746;2022-08-19T07:08:59;20.00;99.90
13328;DHT22;6733;51.044;3.746;2022-08-19T07:11:25;20.00;99.90
13328;DHT22;6733;51.044;3.746;2022-08-19T07:13:52;20.00;99.90
13328;DHT22;6733;51.044;3.746;2022-08-19T07:16:19;20.00;99.90
13328;DHT22;6733;51.044;3.746;2022-08-19T07:18:47;20.00;99.90
13328;DHT22;6733;51.044;3.746;2022-08-19T07:21:20;20.00;99.90
13328;DHT22;6733;51.044;3.746;2022-08-19T07:23:47;20.10;99.90
13328;DHT22;6733;51.044;3.746;2022-08-19T07:26:18;20.10;99.90
13328;DHT22;6733;51.044;3.746;2022-08-19T07:28:46;20.20;99.90
13328;DHT22;6733;51.044;3.746;2022-08-19T07:31:14;20.30;99.90
13328;DHT22;6733;51.044;3.746;2022-08-19T07:33:41;20.20;99.90
13328;DHT22;6733;51.044;3.746;2022-08-19T07:36:10;20.30;99.90
13328;DHT22;6733;51.044;3.746;2022-08-19T07:38:44;20.30;99.90
13328;DHT22;6733;51.044;3.746;2022-08-19T07:41:12;20.30;99.90
13328;DHT22;6733;51.044;3.746;2022-08-19T07:43:39;20.40;99.90
13328;DHT22;6733;51.044;3.746;2022-08-19T07:46:06;20.50;99.90
13328;DHT22;6733;51.044;3.746;2022-08-19T07:48:33;20.60;99.90
13328;DHT22;6733;51.044;3.746;2022-08-19T07:51:01;20.60;99.90
13328;DHT22;6733;51.044;3.746;2022-08-19T07:53:28;20.60;99.90
13328;DHT22;6733;51.044;3.746;2022-08-19T07:55:55;20.60;99.90
13328;DHT22;6733;51.044;3.746;2022-08-19T07:58:25;20.70;99.90
13328;DHT22;6733;51.044;3.746;2022-08-19T08:00:51;20.80;99.90
13328;DHT22;6733;51.044;3.746;2022-08-19T08:03:21;20.80;99.90
13328;DHT22;6733;51.044;3.746;2022-08-19T08:06:08;20.80;99.90
13328;DHT22;6733;51.044;3.746;2022-08-19T08:08:53;20.80;99.90
13328;DHT22;6733;51.044;3.746;2022-08-19T08:11:54;20.80;99.90
13328;DHT22;6733;51.044;3.746;2022-08-19T08:14:32;20.80;99.90
13328;DHT22;6733;51.044;3.746;2022-08-19T08:16:59;20.80;99.90
13328;DHT22;6733;51.044;3.746;2022-08-19T08:19:27;20.80;99.90
13328;DHT22;6733;51.044;3.746;2022-08-19T08:21:57;20.80;99.90
13328;DHT22;6733;51.044;3.746;2022-08-19T08:24:26;20.80;99.90
13328;DHT22;6733;51.044;3.746;2022-08-19T08:26:53;20.80;99.90
13328;DHT22;6733;51.044;3.746;2022-08-19T08:29:19;20.80;99.90
13328;DHT22;6733;51.044;3.746;2022-08-19T08:31:46;20.90;99.90
13328;DHT22;6733;51.044;3.746;2022-08-19T08:34:13;20.80;99.90
13328;DHT22;6733;51.044;3.746;2022-08-19T08:36:43;20.90;99.90
13328;DHT22;6733;51.044;3.746;2022-08-19T08:39:13;20.80;99.90
13328;DHT22;6733;51.044;3.746;2022-08-19T08:47:10;21.10;99.90
13328;DHT22;6733;51.044;3.746;2022-08-19T08:49:55;21.30;99.90
13328;DHT22;6733;51.044;3.746;2022-08-19T08:54:55;21.40;99.90
13328;DHT22;6733;51.044;3.746;2022-08-19T08:57:33;21.40;99.90
13328;DHT22;6733;51.044;3.746;2022-08-19T09:00:07;21.50;99.90
13328;DHT22;6733;51.044;3.746;2022-08-19T09:02:34;21.50;99.90
13328;DHT22;6733;51.044;3.746;2022-08-19T09:05:00;21.50;99.90
13328;DHT22;6733;51.044;3.746;2022-08-19T09:10:06;21.60;99.90
13328;DHT22;6733;51.044;3.746;2022-08-19T09:15:45;21.60;99.90
13328;DHT22;6733;51.044;3.746;2022-08-19T09:18:14;21.70;99.90
13328;DHT22;6733;51.044;3.746;2022-08-19T09:20:42;21.70;99.90
13328;DHT22;6733;51.044;3.746;2022-08-19T09:23:08;21.60;99.90
13328;DHT22;6733;51.044;3.746;2022-08-19T09:25:36;21.60;99.90
13328;DHT22;6733;51.044;3.746;2022-08-19T09:28:03;21.80;99.90
13328;DHT22;6733;51.044;3.746;2022-08-19T09:30:32;22.00;99.90
13328;DHT22;6733;51.044;3.746;2022-08-19T09:32:59;22.30;99.90
13328;DHT22;6733;51.044;3.746;2022-08-19T09:35:28;22.50;99.90
13328;DHT22;6733;51.044;3.746;2022-08-19T09:37:56;22.70;99.90
13328;DHT22;6733;51.044;3.746;2022-08-19T09:40:23;22.80;99.90
13328;DHT22;6733;51.044;3.746;2022-08-19T09:42:51;22.90;99.90
13328;DHT22;6733;51.044;3.746;2022-08-19T09:45:20;23.20;99.90
13328;DHT22;6733;51.044;3.746;2022-08-19T09:47:50;23.30;99.90
13328;DHT22;6733;51.044;3.746;2022-08-19T09:50:17;23.40;99.90
13328;DHT22;6733;51.044;3.746;2022-08-19T09:52:45;23.50;99.90
13328;DHT22;6733;51.044;3.746;2022-08-19T09:55:12;23.70;99.90
13328;DHT22;6733;51.044;3.746;2022-08-19T09:57:38;23.80;99.90
13328;DHT22;6733;51.044;3.746;2022-08-19T10:00:07;23.80;99.90
13328;DHT22;6733;51.044;3.746;2022-08-19T10:02:34;23.80;99.90
13328;DHT22;6733;51.044;3.746;2022-08-19T10:05:00;23.60;99.90
13328;DHT22;6733;51.044;3.746;2022-08-19T10:07:59;23.10;99.90
13328;DHT22;6733;51.044;3.746;2022-08-19T10:10:26;22.90;99.90
13328;DHT22;6733;51.044;3.746;2022-08-19T10:12:52;22.80;99.90
13328;DHT22;6733;51.044;3.746;2022-08-19T10:15:20;22.70;99.90
13328;DHT22;6733;51.044;3.746;2022-08-19T10:17:47;22.70;99.90
13328;DHT22;6733;51.044;3.746;2022-08-19T10:20:13;22.70;99.90
13328;DHT22;6733;51.044;3.746;2022-08-19T10:22:39;22.80;99.90
13328;DHT22;6733;51.044;3.746;2022-08-19T10:25:06;22.90;99.90
13328;DHT22;6733;51.044;3.746;2022-08-19T10:27:32;23.10;99.90
13328;DHT22;6733;51.044;3.746;2022-08-19T10:29:58;23.20;99.90
13328;DHT22;6733;51.044;3.746;2022-08-19T10:32:25;23.20;99.90
13328;DHT22;6733;51.044;3.746;2022-08-19T10:34:51;23.30;99.90
13328;DHT22;6733;51.044;3.746;2022-08-19T10:37:18;23.40;99.90
13328;DHT22;6733;51.044;3.746;2022-08-19T10:39:46;23.50;99.90
13328;DHT22;6733;51.044;3.746;2022-08-19T10:42:14;23.40;99.90
13328;DHT22;6733;51.044;3.746;2022-08-19T10:44:42;23.50;99.90
13328;DHT22;6733;51.044;3.746;2022-08-19T10:47:08;23.40;99.90
13328;DHT22;6733;51.044;3.746;2022-08-19T10:49:35;23.40;99.90
13328;DHT22;6733;51.044;3.746;2022-08-19T10:52:21;23.30;99.90
13328;DHT22;6733;51.044;3.746;2022-08-19T10:55:08;23.30;99.90
13328;DHT22;6733;51.044;3.746;2022-08-19T10:57:53;23.40;99.90
13328;DHT22;6733;51.044;3.746;2022-08-19T11:00:22;23.60;99.90
13328;DHT22;6733;51.044;3.746;2022-08-19T11:02:49;23.70;99.90
13328;DHT22;6733;51.044;3.746;2022-08-19T11:05:15;23.60;99.90
13328;DHT22;6733;51.044;3.746;2022-08-19T11:07:43;23.60;99.90
13328;DHT22;6733;51.044;3.746;2022-08-19T11:10:12;23.60;99.90
13328;DHT22;6733;51.044;3.746;2022-08-19T11:12:40;23.60;99.90
13328;DHT22;6733;51.044;3.746;2022-08-19T11:15:08;23.60;99.90
13328;DHT22;6733;51.044;3.746;2022-08-19T11:17:38;23.60;99.90
13328;DHT22;6733;51.044;3.746;2022-08-19T11:20:07;23.70;99.90
13328;DHT22;6733;51.044;3.746;2022-08-19T11:22:34;23.70;99.90
13328;DHT22;6733;51.044;3.746;2022-08-19T11:25:00;23.60;99.90
13328;DHT22;6733;51.044;3.746;2022-08-19T11:27:27;23.40;99.90
13328;DHT22;6733;51.044;3.746;2022-08-19T11:29:54;23.40;99.90
13328;DHT22;6733;51.044;3.746;2022-08-19T11:32:20;23.50;99.90
13328;DHT22;6733;51.044;3.746;2022-08-19T11:34:46;23.40;99.90
13328;DHT22;6733;51.044;3.746;2022-08-19T11:37:13;23.40;99.90
13328;DHT22;6733;51.044;3.746;2022-08-19T11:39:39;23.30;99.90
13328;DHT22;6733;51.044;3.746;2022-08-19T11:42:07;23.50;99.90
13328;DHT22;6733;51.044;3.746;2022-08-19T11:44:53;23.70;99.90
13328;DHT22;6733;51.044;3.746;2022-08-19T11:47:20;23.70;99.90
13328;DHT22;6733;51.044;3.746;2022-08-19T11:49:47;24.00;99.90
13328;DHT22;6733;51.044;3.746;2022-08-19T11:52:13;24.30;99.90
13328;DHT22;6733;51.044;3.746;2022-08-19T11:54:40;24.50;99.90
13328;DHT22;6733;51.044;3.746;2022-08-19T11:57:06;24.30;99.90
13328;DHT22;6733;51.044;3.746;2022-08-19T11:59:32;24.10;99.90
13328;DHT22;6733;51.044;3.746;2022-08-19T12:01:58;23.90;99.90
13328;DHT22;6733;51.044;3.746;2022-08-19T12:04:25;24.00;99.90
13328;DHT22;6733;51.044;3.746;2022-08-19T12:06:51;24.20;99.90
13328;DHT22;6733;51.044;3.746;2022-08-19T12:09:17;24.60;99.90
13328;DHT22;6733;51.044;3.746;2022-08-19T12:11:43;24.70;99.90
13328;DHT22;6733;51.044;3.746;2022-08-19T12:14:12;24.60;99.90
13328;DHT22;6733;51.044;3.746;2022-08-19T12:16:40;24.50;99.90
13328;DHT22;6733;51.044;3.746;2022-08-19T12:19:07;24.70;99.90
13328;DHT22;6733;51.044;3.746;2022-08-19T12:21:35;24.80;99.90
13328;DHT22;6733;51.044;3.746;2022-08-19T12:24:02;25.00;99.90
13328;DHT22;6733;51.044;3.746;2022-08-19T12:26:29;25.10;99.90
13328;DHT22;6733;51.044;3.746;2022-08-19T12:28:58;25.20;99.90
13328;DHT22;6733;51.044;3.746;2022-08-19T12:31:26;25.20;99.90
13328;DHT22;6733;51.044;3.746;2022-08-19T12:33:53;25.10;99.90
13328;DHT22;6733;51.044;3.746;2022-08-19T12:36:20;25.10;99.90
13328;DHT22;6733;51.044;3.746;2022-08-19T12:38:47;25.00;99.90
13328;DHT22;6733;51.044;3.746;2022-08-19T12:41:15;24.80;99.90
13328;DHT22;6733;51.044;3.746;2022-08-19T12:43:43;24.50;99.90
13328;DHT22;6733;51.044;3.746;2022-08-19T12:46:11;24.30;99.90
13328;DHT22;6733;51.044;3.746;2022-08-19T12:48:38;23.90;99.90
13328;DHT22;6733;51.044;3.746;2022-08-19T12:51:10;23.80;99.90
13328;DHT22;6733;51.044;3.746;2022-08-19T12:53:37;23.80;99.90
13328;DHT22;6733;51.044;3.746;2022-08-19T12:56:04;23.70;99.90
13328;DHT22;6733;51.044;3.746;2022-08-19T12:58:31;23.80;99.90
13328;DHT22;6733;51.044;3.746;2022-08-19T13:01:06;24.00;99.90
13328;DHT22;6733;51.044;3.746;2022-08-19T13:03:32;24.20;99.90
13328;DHT22;6733;51.044;3.746;2022-08-19T13:05:58;24.60;99.90
13328;DHT22;6733;51.044;3.746;2022-08-19T13:08:24;24.60;99.90
13328;DHT22;6733;51.044;3.746;2022-08-19T13:10:51;24.60;99.90
13328;DHT22;6733;51.044;3.746;2022-08-19T13:13:17;24.70;99.90
13328;DHT22;6733;51.044;3.746;2022-08-19T13:15:43;24.90;99.90
13328;DHT22;6733;51.044;3.746;2022-08-19T13:18:11;24.90;99.90
13328;DHT22;6733;51.044;3.746;2022-08-19T13:20:39;24.70;99.90
13328;DHT22;6733;51.044;3.746;2022-08-19T13:23:07;24.30;99.90
13328;DHT22;6733;51.044;3.746;2022-08-19T13:25:33;24.10;99.90
13328;DHT22;6733;51.044;3.746;2022-08-19T13:28:00;23.30;99.90
13328;DHT22;6733;51.044;3.746;2022-08-19T13:30:26;22.20;99.90
13328;DHT22;6733;51.044;3.746;2022-08-19T13:33:11;21.90;99.90
13328;DHT22;6733;51.044;3.746;2022-08-19T13:35:40;21.50;99.90
13328;DHT22;6733;51.044;3.746;2022-08-19T13:38:06;21.50;99.90
13328;DHT22;6733;51.044;3.746;2022-08-19T13:40:33;21.60;99.90
13328;DHT22;6733;51.044;3.746;2022-08-19T13:43:00;21.60;99.90
13328;DHT22;6733;51.044;3.746;2022-08-19T13:45:29;21.80;99.90
13328;DHT22;6733;51.044;3.746;2022-08-19T13:47:56;21.90;99.90
13328;DHT22;6733;51.044;3.746;2022-08-19T13:50:27;22.00;99.90
13328;DHT22;6733;51.044;3.746;2022-08-19T13:52:54;22.10;99.90
13328;DHT22;6733;51.044;3.746;2022-08-19T13:55:21;22.40;99.90
13328;DHT22;6733;51.044;3.746;2022-08-19T13:57:56;22.50;99.90
13328;DHT22;6733;51.044;3.746;2022-08-19T14:00:25;22.60;99.90
13328;DHT22;6733;51.044;3.746;2022-08-19T14:02:54;23.00;99.90
13328;DHT22;6733;51.044;3.746;2022-08-19T14:05:22;23.30;99.90
13328;DHT22;6733;51.044;3.746;2022-08-19T14:07:49;23.10;99.90
13328;DHT22;6733;51.044;3.746;2022-08-19T14:10:15;23.30;99.90
13328;DHT22;6733;51.044;3.746;2022-08-19T14:12:42;23.50;99.90
13328;DHT22;6733;51.044;3.746;2022-08-19T14:15:10;23.50;99.90
13328;DHT22;6733;51.044;3.746;2022-08-19T14:17:41;24.60;99.90
13328;DHT22;6733;51.044;3.746;2022-08-19T14:20:10;25.70;99.90
13328;DHT22;6733;51.044;3.746;2022-08-19T14:22:39;26.00;99.90
13328;DHT22;6733;51.044;3.746;2022-08-19T14:25:07;25.40;99.90
13328;DHT22;6733;51.044;3.746;2022-08-19T14:27:38;24.90;99.90
13328;DHT22;6733;51.044;3.746;2022-08-19T14:30:08;24.60;99.90
13328;DHT22;6733;51.044;3.746;2022-08-19T14:32:35;24.30;99.90
13328;DHT22;6733;51.044;3.746;2022-08-19T14:35:02;24.20;99.90
13328;DHT22;6733;51.044;3.746;2022-08-19T14:37:28;24.10;99.90
13328;DHT22;6733;51.044;3.746;2022-08-19T14:39:55;24.00;99.90
13328;DHT22;6733;51.044;3.746;2022-08-19T14:42:21;23.90;99.90
13328;DHT22;6733;51.044;3.746;2022-08-19T14:44:47;24.20;99.90
13328;DHT22;6733;51.044;3.746;2022-08-19T14:47:13;25.00;99.90
13328;DHT22;6733;51.044;3.746;2022-08-19T14:49:40;25.10;99.90
13328;DHT22;6733;51.044;3.746;2022-08-19T14:52:06;25.30;99.90
13328;DHT22;6733;51.044;3.746;2022-08-19T14:54:33;25.20;99.90
13328;DHT22;6733;51.044;3.746;2022-08-19T14:56:59;25.60;99.90
13328;DHT22;6733;51.044;3.746;2022-08-19T14:59:26;26.30;99.90
13328;DHT22;6733;51.044;3.746;2022-08-19T15:01:52;26.70;99.90
13328;DHT22;6733;51.044;3.746;2022-08-19T15:04:18;27.00;99.90
13328;DHT22;6733;51.044;3.746;2022-08-19T15:06:44;27.70;99.90
13328;DHT22;6733;51.044;3.746;2022-08-19T15:09:10;28.50;99.90
13328;DHT22;6733;51.044;3.746;2022-08-19T15:11:37;29.90;99.90
13328;DHT22;6733;51.044;3.746;2022-08-19T15:14:04;30.60;99.90
13328;DHT22;6733;51.044;3.746;2022-08-19T15:16:31;29.30;99.90
13328;DHT22;6733;51.044;3.746;2022-08-19T15:18:58;28.70;99.90
13328;DHT22;6733;51.044;3.746;2022-08-19T15:21:26;28.10;99.90
13328;DHT22;6733;51.044;3.746;2022-08-19T15:23:54;28.80;99.90
13328;DHT22;6733;51.044;3.746;2022-08-19T15:26:21;28.40;99.90
13328;DHT22;6733;51.044;3.746;2022-08-19T15:28:47;27.80;99.90
13328;DHT22;6733;51.044;3.746;2022-08-19T15:31:17;27.50;99.90
13328;DHT22;6733;51.044;3.746;2022-08-19T15:33:44;27.10;99.90
13328;DHT22;6733;51.044;3.746;2022-08-19T15:36:10;26.70;99.90
13328;DHT22;6733;51.044;3.746;2022-08-19T15:38:39;27.00;99.90
13328;DHT22;6733;51.044;3.746;2022-08-19T15:41:15;26.60;99.90
13328;DHT22;6733;51.044;3.746;2022-08-19T15:44:03;26.00;99.90
13328;DHT22;6733;51.044;3.746;2022-08-19T15:46:33;25.70;99.90
13328;DHT22;6733;51.044;3.746;2022-08-19T15:48:59;25.50;99.90
13328;DHT22;6733;51.044;3.746;2022-08-19T15:51:29;25.50;99.90
13328;DHT22;6733;51.044;3.746;2022-08-19T15:53:57;25.30;99.90
13328;DHT22;6733;51.044;3.746;2022-08-19T15:56:24;25.10;99.90
13328;DHT22;6733;51.044;3.746;2022-08-19T15:58:50;24.90;99.90
13328;DHT22;6733;51.044;3.746;2022-08-19T16:01:36;24.90;99.90
13328;DHT22;6733;51.044;3.746;2022-08-19T16:04:21;24.70;99.90
13328;DHT22;6733;51.044;3.746;2022-08-19T16:07:06;24.30;99.90